• Join FlightAware (Why Join?)
  • Login
  • US Flag 
02:24AM EDT


 

Airport Tracker/Info


-or-


 

Live Flight TrackerFlight Track Log ✈ EJA931 ✈ 15-Aug-2013 ✈ KDAY - KCMH

Flight Track Log - Related Links

Times and Time Zones

All times are in EDT time to prevent confusion due to time zone crossing. See the EJA931 flight status page for this flight to view local times or setup timezone preferences in your user account.

Time Position Orientation Groundspeed Altitude Reporting Facility
EDT Latitude Longitude Course Direction KTS MPH feet Rate Location/Type
05:31PM 39.9136 -84.2119 North 173 199 1,500  Level Indianapolis Center
05:32PM 40.0136 -84.2025 North 280 322 5,200 2,100 Climbing Indianapolis Center
05:33PM 40.0783 -84.1456 34° Northeast 288 331 6,800 900 Climbing Indianapolis Center
05:34PM 40.0919 -84.0575 79° East 288 331 7,000 120 Climbing Indianapolis Center
05:35PM 40.0883 -84.0114 96° East 283 326 7,000  Level Indianapolis Center
05:35PM 40.0836 -83.9547 96° East 280 322 7,000  Level Indianapolis Center
05:36PM 40.0803 -83.9097 96° East 279 321 7,000  Level Indianapolis Center
05:37PM 40.0725 -83.8094 96° East 278 320 7,000  Level Indianapolis Center
05:38PM 40.0644 -83.7083 96° East 277 319 7,000  Level Indianapolis Center
05:39PM 40.0658 -83.6028 89° East 285 328 7,000  Level Indianapolis Center
05:40PM 40.0767 -83.4981 82° East 288 331 7,000  Level Indianapolis Center
05:41PM 40.0869 -83.3939 83° East 287 330 7,000  Level Indianapolis Center
05:42PM 40.0972 -83.2908 83° East 284 327 7,000  Level Indianapolis Center
05:43PM 40.1089 -83.1700 83° East 284 327 7,000 -120 Level Indianapolis Center
05:44PM 40.1161 -83.0681 85° East 280 322 6,800 -540 Descending Indianapolis Center
05:45PM 40.1128 -82.9678 92° East 275 316 6,000 -480 Descending Indianapolis Center
05:46PM 40.1078 -82.8761 94° East 257 296 5,800 -840 Descending Indianapolis Center
05:47PM 40.0944 -82.7997 103° East 223 257 4,300 -1,260 Descending Indianapolis Center
05:48PM 40.0467 -82.7811 163° South 202 232 3,300 -900 Descending Indianapolis Center
05:49PM 40.0003 -82.7897 188° South 181 208 2,500 -960 Descending Indianapolis Center
05:51PM 39.9989 -82.8547 268° West 122 140 1,300 -660 Descending Indianapolis Center
05:51PM 40.0028 -82.8861 279° West 140 161 1,200 -120 Descending Indianapolis Center
05:53PM 39.9980 -82.8920 241° Southwest  Level Estimated